createdAt,value
2018-08-22T00:00:32.059Z,0.00
2018-08-22T00:01:32.049Z,0.00
2018-08-22T00:02:32.078Z,0.00
2018-08-22T00:03:32.027Z,0.00
2018-08-22T00:04:32.014Z,0.00
2018-08-22T00:05:32.004Z,0.00
2018-08-22T00:06:31.992Z,0.00
2018-08-22T00:07:31.982Z,0.00
2018-08-22T00:08:31.982Z,0.00
2018-08-22T00:09:31.985Z,0.00
2018-08-22T00:10:31.949Z,0.00
2018-08-22T00:11:31.936Z,0.00
2018-08-22T00:12:31.927Z,0.00
2018-08-22T00:13:31.914Z,0.00
2018-08-22T00:14:31.905Z,0.00
2018-08-22T00:15:31.911Z,0.00
2018-08-22T00:16:31.884Z,0.00
2018-08-22T00:17:31.874Z,0.00
2018-08-22T00:18:31.865Z,0.00
2018-08-22T00:19:31.857Z,0.00
2018-08-22T00:20:31.857Z,0.00
2018-08-22T00:21:31.831Z,0.00
2018-08-22T00:22:31.939Z,0.00
2018-08-22T00:23:31.820Z,0.00
2018-08-22T00:24:31.799Z,0.00
2018-08-22T00:25:31.783Z,0.00
2018-08-22T00:26:31.778Z,0.00
2018-08-22T00:27:31.762Z,0.00
2018-08-22T00:28:31.752Z,0.00
2018-08-22T00:29:31.778Z,0.00
2018-08-22T00:30:31.729Z,0.00
2018-08-22T00:31:31.720Z,0.00
2018-08-22T00:32:31.726Z,0.00
2018-08-22T00:33:31.695Z,0.00
2018-08-22T00:34:31.688Z,0.00
2018-08-22T00:35:31.671Z,0.00
2018-08-22T00:36:31.663Z,0.00
2018-08-22T00:37:31.650Z,0.00
2018-08-22T00:38:31.661Z,0.00
2018-08-22T00:39:31.628Z,0.00
2018-08-22T00:40:31.614Z,0.00
2018-08-22T00:41:31.607Z,0.00
2018-08-22T00:42:31.593Z,0.00
2018-08-22T00:43:31.581Z,0.00
2018-08-22T00:44:31.597Z,0.00
2018-08-22T00:45:31.559Z,0.00
2018-08-22T00:46:31.552Z,0.00
2018-08-22T00:47:31.540Z,0.00
2018-08-22T00:48:31.530Z,0.00
2018-08-22T00:49:31.519Z,0.00
2018-08-22T00:50:31.518Z,0.00
2018-08-22T00:51:31.496Z,0.00
2018-08-22T00:52:31.485Z,0.00
2018-08-22T00:53:31.471Z,0.00
2018-08-22T00:54:31.479Z,0.00
2018-08-22T00:55:31.455Z,0.00
2018-08-22T00:56:31.442Z,0.00
2018-08-22T00:57:31.431Z,0.00
2018-08-22T00:58:31.418Z,0.00
2018-08-22T00:59:31.421Z,0.00
2018-08-22T01:00:31.395Z,0.00
2018-08-22T01:01:31.389Z,0.00
2018-08-22T01:02:31.376Z,0.00
2018-08-22T01:03:31.382Z,0.00
2018-08-22T01:04:31.358Z,0.00
2018-08-22T01:05:31.345Z,0.00
2018-08-22T01:06:31.335Z,0.00
2018-08-22T01:07:31.338Z,0.00
2018-08-22T01:08:31.311Z,0.00
2018-08-22T01:09:31.301Z,0.00
2018-08-22T01:10:31.306Z,0.00
2018-08-22T01:11:31.276Z,0.00
2018-08-22T01:12:31.268Z,0.00
2018-08-22T01:13:31.254Z,0.00
2018-08-22T01:14:31.244Z,0.00
2018-08-22T01:15:31.243Z,0.00
2018-08-22T01:16:31.223Z,0.00
2018-08-22T01:17:31.215Z,0.00
2018-08-22T01:18:31.200Z,0.00
2018-08-22T01:19:31.194Z,0.00
2018-08-22T01:20:31.193Z,0.00
2018-08-22T01:21:31.171Z,0.00
2018-08-22T01:22:31.157Z,0.00
2018-08-22T01:23:31.163Z,0.00
2018-08-22T01:24:31.139Z,0.00
2018-08-22T01:25:31.128Z,0.00
2018-08-22T01:26:31.117Z,0.00
2018-08-22T01:27:31.123Z,0.00
2018-08-22T01:28:31.097Z,0.00
2018-08-22T01:29:31.085Z,0.00
2018-08-22T01:30:31.071Z,0.00
2018-08-22T01:31:31.060Z,0.00
2018-08-22T01:32:31.069Z,0.00
2018-08-22T01:33:31.036Z,0.00
2018-08-22T01:34:31.029Z,0.00
2018-08-22T01:35:31.016Z,0.00
2018-08-22T01:36:31.007Z,0.00
2018-08-22T01:37:31.011Z,0.00
2018-08-22T01:38:30.985Z,0.00
2018-08-22T01:39:30.972Z,0.00
2018-08-22T01:40:30.966Z,0.00
2018-08-22T01:41:30.950Z,0.00
2018-08-22T01:42:30.960Z,0.00
2018-08-22T01:43:30.931Z,0.00
2018-08-22T01:44:30.923Z,0.00
2018-08-22T01:45:30.910Z,0.00
2018-08-22T01:46:30.895Z,0.00
2018-08-22T01:47:30.910Z,0.00
2018-08-22T01:48:30.878Z,0.00
2018-08-22T01:49:30.865Z,0.00
2018-08-22T01:50:30.854Z,0.00
2018-08-22T01:51:30.846Z,0.00
2018-08-22T01:52:30.836Z,0.00
2018-08-22T01:53:30.836Z,0.00
2018-08-22T01:54:30.812Z,0.00
2018-08-22T01:55:30.802Z,0.00
2018-08-22T01:56:30.790Z,0.00
2018-08-22T01:57:30.777Z,0.00
2018-08-22T01:58:30.796Z,0.00
2018-08-22T01:59:30.759Z,0.00
2018-08-22T02:00:30.744Z,0.00
2018-08-22T02:01:30.735Z,0.00
2018-08-22T02:02:30.726Z,0.00
2018-08-22T02:03:30.714Z,0.00
2018-08-22T02:04:30.715Z,0.00
2018-08-22T02:05:30.692Z,0.00
2018-08-22T02:06:30.679Z,0.00
2018-08-22T02:07:30.671Z,0.00
2018-08-22T02:08:30.704Z,0.00
2018-08-22T02:09:30.649Z,0.00
2018-08-22T02:10:30.636Z,0.00
2018-08-22T02:11:30.626Z,0.00
2018-08-22T02:12:30.619Z,0.00
2018-08-22T02:13:30.607Z,0.00
2018-08-22T02:14:30.616Z,0.00
2018-08-22T02:15:30.583Z,0.00
2018-08-22T02:16:30.573Z,0.00
2018-08-22T02:17:30.563Z,0.00
2018-08-22T02:18:30.553Z,0.00
2018-08-22T02:19:30.540Z,0.00
2018-08-22T02:20:30.547Z,0.00
2018-08-22T02:21:30.519Z,0.00
2018-08-22T02:22:30.508Z,0.00
2018-08-22T02:23:30.494Z,0.00
2018-08-22T02:24:30.487Z,0.00
2018-08-22T02:25:30.476Z,0.00
2018-08-22T02:26:30.483Z,0.00
2018-08-22T02:27:30.452Z,0.00
2018-08-22T02:28:30.443Z,0.00
2018-08-22T02:29:30.432Z,0.00
2018-08-22T02:30:30.424Z,0.00
2018-08-22T02:31:30.410Z,0.00
2018-08-22T02:32:30.420Z,0.00
2018-08-22T02:33:30.388Z,0.00
2018-08-22T02:34:30.376Z,0.00
2018-08-22T02:35:30.369Z,0.00
2018-08-22T02:36:30.363Z,0.00
2018-08-22T02:37:30.343Z,0.00
2018-08-22T02:38:30.346Z,0.00
2018-08-22T02:39:30.321Z,0.00
2018-08-22T02:40:30.311Z,0.00
2018-08-22T02:41:30.299Z,0.00
2018-08-22T02:42:30.306Z,0.00
2018-08-22T02:43:30.291Z,0.00
2018-08-22T02:44:30.284Z,0.00
2018-08-22T02:45:30.256Z,0.00
2018-08-22T02:46:30.250Z,0.00
2018-08-22T02:47:30.236Z,0.00
2018-08-22T02:48:30.242Z,0.00
2018-08-22T02:49:30.251Z,0.00
2018-08-22T02:50:30.199Z,0.00
2018-08-22T02:51:30.195Z,0.00
2018-08-22T02:52:30.180Z,0.00
2018-08-22T02:53:30.176Z,0.00
2018-08-22T02:54:30.159Z,0.00
2018-08-22T02:55:30.160Z,0.00
2018-08-22T02:56:30.138Z,0.00
2018-08-22T02:57:30.130Z,0.00
2018-08-22T02:58:30.132Z,0.00
2018-08-22T02:59:30.103Z,0.00
2018-08-22T03:00:30.091Z,0.00
2018-08-22T03:01:30.081Z,0.00
2018-08-22T03:02:30.074Z,0.00
2018-08-22T03:03:30.076Z,0.00
2018-08-22T03:04:30.053Z,0.00
2018-08-22T03:05:30.037Z,0.00
2018-08-22T03:06:30.029Z,0.00
2018-08-22T03:07:30.019Z,0.00
2018-08-22T03:08:30.044Z,0.00
2018-08-22T03:09:29.997Z,0.00
2018-08-22T03:10:29.985Z,0.00
2018-08-22T03:11:29.974Z,0.00
2018-08-22T03:12:29.963Z,0.00
2018-08-22T03:13:29.950Z,0.00
2018-08-22T03:14:29.954Z,0.00
2018-08-22T03:15:29.939Z,0.00
2018-08-22T03:16:29.920Z,0.00
2018-08-22T03:17:29.908Z,0.00
2018-08-22T03:18:29.899Z,0.00
2018-08-22T03:19:29.888Z,0.00
2018-08-22T03:20:29.887Z,0.00
2018-08-22T03:21:29.867Z,0.00
2018-08-22T03:22:29.855Z,0.00
2018-08-22T03:23:29.845Z,0.00
2018-08-22T03:24:29.871Z,0.00
2018-08-22T03:25:29.820Z,0.00
2018-08-22T03:26:29.815Z,0.00
2018-08-22T03:27:29.819Z,0.00
2018-08-22T03:28:29.787Z,0.00
2018-08-22T03:29:29.786Z,0.00
2018-08-22T03:30:29.780Z,0.00
2018-08-22T03:31:29.759Z,0.00
2018-08-22T03:32:29.751Z,0.00
2018-08-22T03:33:29.772Z,0.00
2018-08-22T03:34:29.735Z,0.00
2018-08-22T03:35:29.711Z,0.00
2018-08-22T03:36:29.699Z,0.00
2018-08-22T03:37:29.688Z,0.00
2018-08-22T03:38:29.678Z,0.00
2018-08-22T03:39:29.689Z,0.00
2018-08-22T03:40:29.659Z,0.00
2018-08-22T03:41:29.689Z,0.00
2018-08-22T03:42:29.636Z,0.00
2018-08-22T03:43:29.624Z,0.00
2018-08-22T03:44:29.619Z,0.00
2018-08-22T03:45:29.603Z,0.00
2018-08-22T03:46:29.596Z,0.00
2018-08-22T03:47:29.593Z,0.00
2018-08-22T03:48:29.572Z,0.00
2018-08-22T03:49:29.560Z,0.00
2018-08-22T03:50:29.551Z,0.00
2018-08-22T03:51:29.573Z,0.00
2018-08-22T03:52:29.545Z,0.00
2018-08-22T03:53:29.517Z,0.00
2018-08-22T03:54:29.502Z,0.00
2018-08-22T03:55:29.491Z,0.00
2018-08-22T03:56:29.503Z,0.00
2018-08-22T03:57:29.474Z,0.00
2018-08-22T03:58:29.462Z,0.00
2018-08-22T03:59:29.447Z,0.00
2018-08-22T04:00:29.437Z,0.00
2018-08-22T04:01:29.427Z,0.00
2018-08-22T04:02:29.449Z,0.00
2018-08-22T04:03:29.406Z,0.00
2018-08-22T04:04:29.398Z,0.00
2018-08-22T04:05:29.385Z,0.00
2018-08-22T04:06:29.373Z,0.00
2018-08-22T04:07:29.364Z,0.00
2018-08-22T04:08:29.367Z,0.00
2018-08-22T04:09:29.337Z,0.00
2018-08-22T04:10:29.331Z,0.00
2018-08-22T04:11:29.317Z,0.00
2018-08-22T04:12:29.350Z,0.00
2018-08-22T04:13:29.298Z,0.00
2018-08-22T04:14:29.286Z,5.62
2018-08-22T04:15:29.277Z,5.62
2018-08-22T04:16:29.262Z,5.62
2018-08-22T04:17:29.257Z,5.62
2018-08-22T04:18:29.254Z,5.62
2018-08-22T04:19:29.231Z,5.62
2018-08-22T04:20:29.233Z,5.62
2018-08-22T04:21:29.231Z,11.25
2018-08-22T04:22:29.201Z,11.25
2018-08-22T04:23:29.198Z,11.25
2018-08-22T04:24:29.175Z,11.25
2018-08-22T04:25:29.163Z,11.25
2018-08-22T04:26:29.163Z,11.25
2018-08-22T04:27:29.145Z,16.88
2018-08-22T04:28:29.133Z,16.88
2018-08-22T04:29:29.134Z,16.88
2018-08-22T04:30:29.112Z,16.88
2018-08-22T04:31:29.112Z,22.50
2018-08-22T04:32:29.090Z,22.50
2018-08-22T04:33:29.077Z,22.50
2018-08-22T04:34:29.068Z,22.50
2018-08-22T04:35:29.068Z,28.12
2018-08-22T04:36:29.043Z,28.12
2018-08-22T04:37:29.056Z,28.12
2018-08-22T04:38:29.022Z,33.75
2018-08-22T04:39:29.014Z,33.75
2018-08-22T04:40:29.017Z,33.75
2018-08-22T04:41:28.992Z,33.75
2018-08-22T04:42:28.978Z,39.38
2018-08-22T04:43:28.970Z,39.38
2018-08-22T04:44:28.960Z,45.00
2018-08-22T04:45:28.964Z,45.00
2018-08-22T04:46:28.936Z,50.62
2018-08-22T04:47:28.928Z,50.62
2018-08-22T04:48:28.927Z,56.25
2018-08-22T04:49:28.906Z,56.25
2018-08-22T04:50:28.894Z,56.25
2018-08-22T04:51:28.891Z,61.88
2018-08-22T04:52:28.873Z,61.88
2018-08-22T04:53:28.863Z,67.50
2018-08-22T04:54:28.848Z,73.12
2018-08-22T04:55:28.837Z,73.12
2018-08-22T04:56:28.843Z,78.75
2018-08-22T04:57:28.818Z,84.38
2018-08-22T04:58:28.803Z,84.38
2018-08-22T04:59:28.811Z,90.00
2018-08-22T05:00:28.783Z,90.00
2018-08-22T05:01:28.791Z,95.62
2018-08-22T05:02:28.777Z,95.62
2018-08-22T05:03:28.762Z,101.25
2018-08-22T05:04:28.741Z,106.88
2018-08-22T05:05:28.731Z,106.88
2018-08-22T05:06:28.717Z,112.50
2018-08-22T05:07:28.708Z,112.50
2018-08-22T05:08:28.715Z,118.12
2018-08-22T05:09:28.693Z,123.75
2018-08-22T05:10:28.674Z,123.75
2018-08-22T05:11:28.664Z,129.38
2018-08-22T05:12:28.655Z,129.38
2018-08-22T05:13:28.655Z,135.00
2018-08-22T05:14:28.636Z,135.00
2018-08-22T05:15:28.619Z,135.00
2018-08-22T05:16:28.611Z,140.62
2018-08-22T05:17:28.597Z,140.62
2018-08-22T05:18:28.610Z,146.25
2018-08-22T05:19:28.575Z,146.25
2018-08-22T05:20:28.563Z,151.88
2018-08-22T05:21:28.554Z,157.50
2018-08-22T05:22:28.545Z,163.12
2018-08-22T05:23:28.535Z,163.12
2018-08-22T05:24:28.536Z,168.75
2018-08-22T05:25:28.512Z,168.75
2018-08-22T05:26:28.499Z,174.38
2018-08-22T05:27:28.488Z,180.00
2018-08-22T05:28:28.478Z,185.62
2018-08-22T05:29:28.467Z,191.25
2018-08-22T05:30:28.477Z,196.88
2018-08-22T05:31:28.444Z,202.50
2018-08-22T05:32:28.437Z,208.12
2018-08-22T05:33:28.422Z,208.12
2018-08-22T05:34:28.414Z,219.38
2018-08-22T05:35:28.419Z,225.00
2018-08-22T05:36:28.392Z,225.00
2018-08-22T05:37:28.382Z,230.62
2018-08-22T05:38:28.368Z,230.62
2018-08-22T05:39:28.360Z,230.62
2018-08-22T05:40:28.396Z,236.25
2018-08-22T05:41:28.338Z,241.88
2018-08-22T05:42:28.326Z,247.50
2018-08-22T05:43:28.312Z,253.12
2018-08-22T05:44:28.348Z,258.75
2018-08-22T05:45:28.294Z,270.00
2018-08-22T05:46:28.280Z,270.00
2018-08-22T05:47:28.271Z,281.25
2018-08-22T05:48:28.263Z,286.88
2018-08-22T05:49:28.250Z,292.50
2018-08-22T05:50:28.255Z,303.75
2018-08-22T05:51:28.229Z,303.75
2018-08-22T05:52:28.217Z,303.75
2018-08-22T05:53:28.202Z,309.38
2018-08-22T05:54:28.196Z,309.38
2018-08-22T05:55:28.184Z,315.00
2018-08-22T05:56:28.190Z,326.25
2018-08-22T05:57:28.215Z,343.12
2018-08-22T05:58:28.149Z,348.75
2018-08-22T05:59:28.142Z,354.38
2018-08-22T06:00:28.127Z,360.00
2018-08-22T06:01:28.116Z,365.62
2018-08-22T06:02:28.124Z,376.88
2018-08-22T06:03:28.210Z,388.12
2018-08-22T06:04:28.084Z,393.75
2018-08-22T06:05:28.073Z,399.38
2018-08-22T06:06:28.063Z,405.00
2018-08-22T06:07:28.051Z,410.62
2018-08-22T06:08:28.050Z,410.62
2018-08-22T06:09:28.031Z,416.25
2018-08-22T06:10:28.019Z,461.25
2018-08-22T06:11:28.009Z,511.88
2018-08-22T06:12:28.012Z,511.88
2018-08-22T06:13:27.988Z,534.38
2018-08-22T06:14:27.972Z,618.75
2018-08-22T06:15:27.964Z,618.75
2018-08-22T06:16:27.954Z,596.25
2018-08-22T06:17:27.959Z,646.88
2018-08-22T06:18:27.931Z,596.25
2018-08-22T06:19:27.921Z,601.88
2018-08-22T06:20:27.925Z,556.88
2018-08-22T06:21:27.900Z,630.00
2018-08-22T06:22:27.888Z,601.88
2018-08-22T06:23:27.876Z,601.88
2018-08-22T06:24:27.887Z,607.50
2018-08-22T06:25:27.903Z,506.25
2018-08-22T06:26:27.844Z,585.00
2018-08-22T06:27:27.831Z,663.75
2018-08-22T06:28:27.821Z,680.62
2018-08-22T06:29:27.810Z,714.38
2018-08-22T06:30:27.816Z,725.62
2018-08-22T06:31:27.800Z,720.00
2018-08-22T06:32:27.778Z,703.12
2018-08-22T06:33:27.767Z,714.38
2018-08-22T06:34:27.787Z,736.88
2018-08-22T06:35:27.761Z,765.00
2018-08-22T06:36:27.798Z,793.12
2018-08-22T06:37:27.723Z,770.62
2018-08-22T06:38:27.713Z,759.38
2018-08-22T06:39:27.704Z,765.00
2018-08-22T06:40:27.723Z,759.38
2018-08-22T06:41:27.681Z,787.50
2018-08-22T06:42:27.674Z,832.50
2018-08-22T06:43:27.657Z,838.12
2018-08-22T06:44:27.651Z,855.00
2018-08-22T06:45:27.640Z,860.62
2018-08-22T06:46:27.667Z,804.38
2018-08-22T06:47:27.619Z,871.88
2018-08-22T06:48:27.608Z,916.88
2018-08-22T06:49:27.596Z,945.00
2018-08-22T06:50:27.584Z,984.38
2018-08-22T06:51:27.575Z,1001.25
2018-08-22T06:52:27.579Z,995.62
2018-08-22T06:53:27.555Z,1001.25
2018-08-22T06:54:27.541Z,1029.38
2018-08-22T06:55:27.532Z,1051.88
2018-08-22T06:56:27.538Z,1051.88
2018-08-22T06:57:27.506Z,1068.75
2018-08-22T06:58:27.509Z,1074.38
2018-08-22T06:59:27.483Z,1068.75
2018-08-22T07:00:27.472Z,973.12
2018-08-22T07:01:27.475Z,1119.38
2018-08-22T07:02:27.452Z,1130.62
2018-08-22T07:03:27.441Z,1136.25
2018-08-22T07:04:27.433Z,1170.00
2018-08-22T07:05:27.419Z,1198.12
2018-08-22T07:06:27.444Z,1209.38
2018-08-22T07:07:27.397Z,1209.38
2018-08-22T07:08:27.384Z,1243.12
2018-08-22T07:09:27.374Z,1074.38
2018-08-22T07:10:27.360Z,1282.50
2018-08-22T07:11:27.351Z,1293.75
2018-08-22T07:12:27.353Z,1321.88
2018-08-22T07:13:27.334Z,1321.88
2018-08-22T07:14:27.318Z,1355.62
2018-08-22T07:15:27.308Z,1372.50
2018-08-22T07:16:27.294Z,1417.50
2018-08-22T07:17:27.300Z,1462.50
2018-08-22T07:18:27.272Z,1468.12
2018-08-22T07:19:27.261Z,1428.75
2018-08-22T07:20:27.251Z,1321.88
2018-08-22T07:21:27.243Z,1338.75
2018-08-22T07:22:27.256Z,1434.38
2018-08-22T07:23:27.224Z,1440.00
2018-08-22T07:24:27.209Z,1456.88
2018-08-22T07:25:27.198Z,1445.62
2018-08-22T07:26:27.187Z,1451.25
2018-08-22T07:27:27.179Z,1406.25
2018-08-22T07:28:27.183Z,1389.38
2018-08-22T07:29:27.157Z,1434.38
2018-08-22T07:30:27.146Z,1462.50
2018-08-22T07:31:27.136Z,1451.25
2018-08-22T07:32:27.125Z,1462.50
2018-08-22T07:33:27.127Z,1473.75
2018-08-22T07:34:27.101Z,1490.62
2018-08-22T07:35:27.091Z,1496.25
2018-08-22T07:36:27.083Z,1490.62
2018-08-22T07:37:27.072Z,1490.62
2018-08-22T07:38:27.073Z,1507.50
2018-08-22T07:39:27.049Z,1417.50
2018-08-22T07:40:27.056Z,1445.62
2018-08-22T07:41:27.029Z,1468.12
2018-08-22T07:42:27.016Z,1530.00
2018-08-22T07:43:27.007Z,1507.50
2018-08-22T07:44:26.993Z,1518.75
2018-08-22T07:45:27.005Z,1558.12
2018-08-22T07:46:26.973Z,1558.12
2018-08-22T07:47:26.963Z,1552.50
2018-08-22T07:48:26.953Z,1620.00
2018-08-22T07:49:26.942Z,1575.00
2018-08-22T07:50:26.934Z,1636.88
2018-08-22T07:51:26.935Z,1693.12
2018-08-22T07:52:26.912Z,1687.50
2018-08-22T07:53:26.924Z,1569.38
2018-08-22T07:54:26.888Z,1648.12
2018-08-22T07:55:26.881Z,1710.00
2018-08-22T07:56:26.896Z,1788.75
2018-08-22T07:57:26.873Z,1833.75
2018-08-22T07:58:26.849Z,1783.12
2018-08-22T07:59:26.838Z,1726.88
2018-08-22T08:00:26.827Z,1766.25
2018-08-22T08:01:26.815Z,1822.50
2018-08-22T08:02:26.823Z,1856.25
2018-08-22T08:03:26.797Z,1867.50
2018-08-22T08:04:26.784Z,1890.00
2018-08-22T08:05:26.840Z,1929.38
2018-08-22T08:06:26.777Z,1946.25
2018-08-22T08:07:26.776Z,1985.62
2018-08-22T08:08:26.779Z,2013.75
2018-08-22T08:09:26.729Z,2058.75
2018-08-22T08:10:26.721Z,2053.12
2018-08-22T08:11:26.714Z,2013.75
2018-08-22T08:12:26.699Z,2041.88
2018-08-22T08:13:26.704Z,2041.88
2018-08-22T08:14:26.680Z,2041.88
2018-08-22T08:15:26.669Z,2002.50
2018-08-22T08:16:26.652Z,1996.88
2018-08-22T08:17:26.660Z,1996.88
2018-08-22T08:18:26.647Z,2053.12
2018-08-22T08:19:26.642Z,2160.00
2018-08-22T08:20:26.613Z,2154.38
2018-08-22T08:21:26.603Z,2109.38
2018-08-22T08:22:26.597Z,2070.00
2018-08-22T08:23:26.582Z,2126.25
2018-08-22T08:24:26.596Z,2221.88
2018-08-22T08:25:26.561Z,2171.25
2018-08-22T08:26:26.573Z,2205.00
2018-08-22T08:27:26.541Z,2250.00
2018-08-22T08:28:26.530Z,2311.88
2018-08-22T08:29:26.526Z,2317.50
2018-08-22T08:30:26.536Z,2278.12
2018-08-22T08:31:26.503Z,2306.25
2018-08-22T08:32:26.490Z,2278.12
2018-08-22T08:33:26.479Z,2340.00
2018-08-22T08:34:26.468Z,2351.25
2018-08-22T08:35:26.475Z,2351.25
2018-08-22T08:36:26.448Z,2300.62
2018-08-22T08:37:26.444Z,2351.25
2018-08-22T08:38:26.431Z,2424.38
2018-08-22T08:39:26.419Z,2430.00
2018-08-22T08:40:26.423Z,2413.12
2018-08-22T08:41:26.553Z,2340.00
2018-08-22T08:42:26.388Z,2401.88
2018-08-22T08:43:26.521Z,2446.88
2018-08-22T08:44:26.368Z,2491.88
2018-08-22T08:45:26.374Z,2520.00
2018-08-22T08:46:26.347Z,2486.25
2018-08-22T08:47:26.336Z,2643.75
2018-08-22T08:48:26.325Z,2711.25
2018-08-22T08:49:26.354Z,2553.75
2018-08-22T08:50:26.327Z,1980.00
2018-08-22T08:51:26.315Z,1805.62
2018-08-22T08:52:26.309Z,2266.88
2018-08-22T08:53:26.275Z,2621.25
2018-08-22T08:54:26.265Z,2716.88
2018-08-22T08:55:26.253Z,2559.38
2018-08-22T08:56:26.259Z,2480.62
2018-08-22T08:57:26.317Z,2604.38
2018-08-22T08:58:26.224Z,2660.62
2018-08-22T08:59:26.213Z,2553.75
2018-08-22T09:00:26.202Z,2548.12
2018-08-22T09:01:26.225Z,2553.75
2018-08-22T09:02:26.180Z,2520.00
2018-08-22T09:03:26.201Z,2570.62
2018-08-22T09:04:26.188Z,2542.50
2018-08-22T09:05:26.151Z,2542.50
2018-08-22T09:06:26.146Z,2587.50
2018-08-22T09:07:26.131Z,2536.88
2018-08-22T09:08:26.121Z,2390.62
2018-08-22T09:09:26.126Z,2632.50
2018-08-22T09:10:27.013Z,2452.50
2018-08-22T09:11:26.088Z,2148.75
2018-08-22T09:12:26.084Z,2773.12
2018-08-22T09:13:26.072Z,2047.50
2018-08-22T09:14:26.078Z,2733.75
2018-08-22T09:15:26.175Z,2700.00
2018-08-22T09:16:26.040Z,2880.00
2018-08-22T09:17:26.139Z,2941.88
2018-08-22T09:18:26.037Z,2733.75
2018-08-22T09:19:26.009Z,2767.50
2018-08-22T09:20:26.001Z,2745.00
2018-08-22T09:21:26.041Z,2818.12
2018-08-22T09:22:25.982Z,2778.75
2018-08-22T09:23:25.984Z,2761.88
2018-08-22T09:24:25.980Z,2829.38
2018-08-22T09:25:25.951Z,2851.88
2018-08-22T09:26:25.958Z,2936.25
2018-08-22T09:27:25.929Z,2930.62
2018-08-22T09:28:25.922Z,2874.38
2018-08-22T09:29:25.941Z,2896.88
2018-08-22T09:30:25.898Z,2773.12
2018-08-22T09:31:25.903Z,2801.25
2018-08-22T09:32:25.880Z,2773.12
2018-08-22T09:33:25.867Z,2790.00
2018-08-22T09:34:25.910Z,2851.88
2018-08-22T09:35:25.876Z,2790.00
2018-08-22T09:36:25.859Z,2846.25
2018-08-22T09:37:25.830Z,2840.62
2018-08-22T09:38:25.817Z,2885.62
2018-08-22T09:39:25.868Z,2801.25
2018-08-22T09:40:25.797Z,2790.00
2018-08-22T09:41:25.803Z,2958.75
2018-08-22T09:42:25.781Z,3324.38
2018-08-22T09:43:25.768Z,3161.25
2018-08-22T09:44:25.774Z,2925.00
2018-08-22T09:45:25.750Z,2885.62
2018-08-22T09:46:25.774Z,2992.50
2018-08-22T09:47:25.730Z,2970.00
2018-08-22T09:48:25.760Z,3071.25
2018-08-22T09:49:25.711Z,3093.75
2018-08-22T09:50:25.701Z,3082.50
2018-08-22T09:51:25.691Z,3093.75
2018-08-22T09:52:25.678Z,3121.88
2018-08-22T09:53:25.668Z,3071.25
2018-08-22T09:54:25.675Z,3105.00
2018-08-22T09:55:25.673Z,3048.75
2018-08-22T09:56:25.653Z,3116.25
2018-08-22T09:57:25.628Z,3110.62
2018-08-22T09:58:25.623Z,3110.62
2018-08-22T09:59:25.611Z,3206.25
2018-08-22T10:00:25.616Z,3256.88
2018-08-22T10:01:25.589Z,3256.88
2018-08-22T10:02:25.582Z,3217.50
2018-08-22T10:03:25.572Z,3223.12
2018-08-22T10:04:25.563Z,3256.88
2018-08-22T10:05:25.591Z,3234.38
2018-08-22T10:06:25.601Z,3234.38
2018-08-22T10:07:25.553Z,3195.00
2018-08-22T10:08:25.521Z,3178.12
2018-08-22T10:09:25.544Z,3211.88
2018-08-22T10:10:25.501Z,3341.25
2018-08-22T10:11:25.508Z,3391.88
2018-08-22T10:12:25.484Z,3358.12
2018-08-22T10:13:25.474Z,3369.38
2018-08-22T10:14:25.461Z,3296.25
2018-08-22T10:15:25.452Z,3228.75
2018-08-22T10:16:25.460Z,3290.62
2018-08-22T10:17:25.471Z,3183.75
2018-08-22T10:18:25.425Z,3217.50
2018-08-22T10:19:25.416Z,3358.12
2018-08-22T10:20:25.403Z,3346.88
2018-08-22T10:21:25.408Z,3138.75
2018-08-22T10:22:25.399Z,3133.12
2018-08-22T10:23:25.373Z,3217.50
2018-08-22T10:24:25.365Z,3099.38
2018-08-22T10:25:25.370Z,3150.00
2018-08-22T10:26:25.365Z,3015.00
2018-08-22T10:27:25.334Z,3245.62
2018-08-22T10:28:25.344Z,3324.38
2018-08-22T10:29:25.317Z,3144.38
2018-08-22T10:30:25.307Z,3138.75
2018-08-22T10:31:25.297Z,2891.25
2018-08-22T10:32:25.313Z,2936.25
2018-08-22T10:33:25.275Z,2913.75
2018-08-22T10:34:25.267Z,2998.12
2018-08-22T10:35:25.258Z,3003.75
2018-08-22T10:36:25.247Z,2739.38
2018-08-22T10:37:25.235Z,2812.50
2018-08-22T10:38:25.241Z,2643.75
2018-08-22T10:39:25.266Z,2851.88
2018-08-22T10:40:25.205Z,2452.50
2018-08-22T10:41:25.197Z,3020.62
2018-08-22T10:42:25.200Z,3144.38
2018-08-22T10:43:25.178Z,3088.12
2018-08-22T10:44:25.227Z,3268.12
2018-08-22T10:45:25.157Z,3223.12
2018-08-22T10:46:25.164Z,3211.88
2018-08-22T10:47:25.139Z,3324.38
2018-08-22T10:48:25.128Z,3301.88
2018-08-22T10:49:25.157Z,3172.50
2018-08-22T10:50:25.161Z,2953.12
2018-08-22T10:51:25.126Z,3009.38
2018-08-22T10:52:25.089Z,3127.50
2018-08-22T10:53:25.080Z,3183.75
2018-08-22T10:54:25.070Z,3155.62
2018-08-22T10:55:25.078Z,3144.38
2018-08-22T10:56:25.057Z,2283.75
2018-08-22T10:57:25.062Z,2058.75
2018-08-22T10:58:25.032Z,3448.12
2018-08-22T10:59:25.020Z,3431.25
2018-08-22T11:00:25.025Z,3279.38
2018-08-22T11:01:25.000Z,3425.62
2018-08-22T11:02:24.992Z,3420.00
2018-08-22T11:03:24.994Z,3425.62
2018-08-22T11:04:24.971Z,3487.50
2018-08-22T11:05:24.959Z,3431.25
2018-08-22T11:06:24.950Z,3560.62
2018-08-22T11:07:24.957Z,3414.38
2018-08-22T11:08:24.956Z,3616.88
2018-08-22T11:09:24.923Z,3369.38
2018-08-22T11:10:24.912Z,3448.12
2018-08-22T11:11:24.903Z,3571.88
2018-08-22T11:12:24.893Z,3594.38
2018-08-22T11:13:24.888Z,3751.88
2018-08-22T11:14:24.884Z,3566.25
2018-08-22T11:15:24.861Z,3476.25
2018-08-22T11:16:24.854Z,3408.75
2018-08-22T11:17:24.859Z,3605.62
2018-08-22T11:18:24.850Z,3645.00
2018-08-22T11:19:24.823Z,3386.25
2018-08-22T11:20:24.815Z,3605.62
2018-08-22T11:21:24.806Z,3673.12
2018-08-22T11:22:24.834Z,3616.88
2018-08-22T11:23:24.800Z,3521.25
2018-08-22T11:24:24.776Z,3684.38
2018-08-22T11:25:24.779Z,3588.75
2018-08-22T11:26:24.755Z,3622.50
2018-08-22T11:27:24.747Z,3667.50
2018-08-22T11:28:24.736Z,3504.38
2018-08-22T11:29:24.744Z,3414.38
2018-08-22T11:30:24.719Z,3285.00
2018-08-22T11:31:24.714Z,3341.25
2018-08-22T11:32:24.703Z,3206.25
2018-08-22T11:33:24.691Z,3020.62
2018-08-22T11:34:24.742Z,3166.88
2018-08-22T11:35:24.672Z,2975.62
2018-08-22T11:36:24.681Z,3436.88
2018-08-22T11:37:24.670Z,3431.25
2018-08-22T11:38:24.642Z,3335.62
2018-08-22T11:39:24.636Z,3436.88
2018-08-22T11:40:24.628Z,3571.88
2018-08-22T11:41:24.630Z,3448.12
2018-08-22T11:42:24.608Z,3290.62
2018-08-22T11:43:24.594Z,1136.25
2018-08-22T11:44:24.591Z,3155.62
2018-08-22T11:45:24.579Z,3515.62
2018-08-22T11:46:24.580Z,3515.62
2018-08-22T11:47:24.555Z,3375.00
2018-08-22T11:48:24.546Z,3189.38
2018-08-22T11:49:24.542Z,3571.88
2018-08-22T11:50:24.568Z,3532.50
2018-08-22T11:51:24.518Z,3459.38
2018-08-22T11:52:24.509Z,1968.75
2018-08-22T11:53:24.497Z,3690.00
2018-08-22T11:54:24.486Z,3751.88
2018-08-22T11:55:24.477Z,3673.12
2018-08-22T11:56:24.490Z,3718.12
2018-08-22T11:57:24.463Z,3532.50
2018-08-22T11:58:24.451Z,3616.88
2018-08-22T11:59:24.439Z,3436.88
2018-08-22T12:00:24.427Z,3105.00
2018-08-22T12:01:24.416Z,3594.38
2018-08-22T12:02:24.423Z,2081.25
2018-08-22T12:03:24.394Z,2621.25
2018-08-22T12:04:24.392Z,3583.12
2018-08-22T12:05:24.381Z,3735.00
2018-08-22T12:06:24.385Z,3571.88
2018-08-22T12:07:24.362Z,3560.62
2018-08-22T12:08:24.351Z,3729.38
2018-08-22T12:09:24.339Z,3785.62
2018-08-22T12:10:24.331Z,2323.12
2018-08-22T12:11:24.367Z,3498.75
2018-08-22T12:12:24.312Z,3678.75
2018-08-22T12:13:24.306Z,3785.62
2018-08-22T12:14:24.297Z,3808.12
2018-08-22T12:15:24.283Z,3881.25
2018-08-22T12:16:24.272Z,3712.50
2018-08-22T12:17:24.307Z,3538.12
2018-08-22T12:18:24.252Z,3285.00
2018-08-22T12:19:24.243Z,3622.50
2018-08-22T12:20:24.235Z,3729.38
2018-08-22T12:21:24.223Z,3706.88
2018-08-22T12:22:24.213Z,3656.25
2018-08-22T12:23:24.274Z,3566.25
2018-08-22T12:24:24.193Z,2317.50
2018-08-22T12:25:24.185Z,1057.50
2018-08-22T12:26:24.178Z,1040.62
2018-08-22T12:27:24.184Z,967.50
2018-08-22T12:28:24.156Z,990.00
2018-08-22T12:29:24.151Z,2272.50
2018-08-22T12:30:24.137Z,3555.00
2018-08-22T12:31:24.127Z,3622.50
2018-08-22T12:32:24.128Z,1220.62
2018-08-22T12:33:24.122Z,3549.38
2018-08-22T12:34:24.098Z,3605.62
2018-08-22T12:35:24.089Z,2694.38